createdAt,value
2023-03-16T00:00:27.989Z,101893.66
2023-03-16T00:02:29.821Z,101899.03
2023-03-16T00:04:31.980Z,101906.22
2023-03-16T00:06:33.680Z,101898.16
2023-03-16T00:08:37.431Z,101900.97
2023-03-16T00:10:39.198Z,101900.97
2023-03-16T00:12:41.120Z,101899.25
2023-03-16T00:14:44.049Z,101898.56
2023-03-16T00:16:52.438Z,101902.09
2023-03-16T00:18:54.248Z,101899.41
2023-03-16T00:20:58.011Z,101905.66
2023-03-16T00:22:59.884Z,101898.44
2023-03-16T00:25:01.514Z,101908.34
2023-03-16T00:27:03.116Z,101915.53
2023-03-16T00:29:04.962Z,101912.72
2023-03-16T00:31:08.238Z,101913.72
2023-03-16T00:33:12.717Z,101907.31
2023-03-16T00:35:15.214Z,101907.22
2023-03-16T00:37:19.131Z,101910.75
2023-03-16T00:39:21.107Z,101913.16
2023-03-16T00:41:22.635Z,101908.66
2023-03-16T00:43:24.770Z,101915.59
2023-03-16T00:45:26.402Z,101920.69
2023-03-16T00:47:30.504Z,101917.88
2023-03-16T00:49:35.895Z,101917.75
2023-03-16T00:51:38.518Z,101919.31
2023-03-16T00:53:41.988Z,101923.72
2023-03-16T00:55:44.097Z,101918.09
2023-03-16T00:57:45.835Z,101921.47
2023-03-16T00:59:48.349Z,101926.72
2023-03-16T01:01:49.999Z,101922.22
2023-03-16T01:03:51.533Z,101931.72
2023-03-16T01:05:55.409Z,101925.31
2023-03-16T01:07:57.244Z,101917.13
2023-03-16T01:10:01.479Z,101912.63
2023-03-16T01:12:06.250Z,101910.63
2023-03-16T01:14:08.265Z,101917.72
2023-03-16T01:16:10.853Z,101923.97
2023-03-16T01:18:12.737Z,101931.88
2023-03-16T01:20:14.536Z,101923.81
2023-03-16T01:22:20.098Z,101926.38
2023-03-16T01:24:22.312Z,101928.09
2023-03-16T01:26:25.476Z,101927.06
2023-03-16T01:28:29.543Z,101919.00
2023-03-16T01:30:31.408Z,101915.34
2023-03-16T01:32:33.266Z,101915.22
2023-03-16T01:34:35.544Z,101928.66
2023-03-16T01:36:38.977Z,101922.31
2023-03-16T01:38:42.815Z,101929.53
2023-03-16T01:40:44.408Z,101928.50
2023-03-16T01:42:47.451Z,101925.81
2023-03-16T01:44:52.364Z,101918.59
2023-03-16T01:46:54.139Z,101928.38
2023-03-16T01:49:06.956Z,101922.88
2023-03-16T01:51:12.279Z,101923.88
2023-03-16T01:53:15.685Z,101932.91
2023-03-16T01:55:21.251Z,101930.09
2023-03-16T01:57:26.242Z,101936.47
2023-03-16T01:59:32.713Z,101945.50
2023-03-16T02:01:35.039Z,101936.47
2023-03-16T02:03:36.679Z,101940.13
2023-03-16T02:05:44.852Z,101939.28
2023-03-16T02:07:48.901Z,101941.38
2023-03-16T02:09:54.224Z,101949.22
2023-03-16T02:11:58.684Z,101951.91
2023-03-16T02:14:08.093Z,101953.75
2023-03-16T02:16:10.758Z,101962.66
2023-03-16T02:18:12.572Z,101960.81
2023-03-16T02:20:30.255Z,101966.19
2023-03-16T02:22:32.358Z,101956.44
2023-03-16T02:24:36.432Z,101959.97
2023-03-16T02:26:46.202Z,101965.47
2023-03-16T02:29:00.001Z,101963.66
2023-03-16T02:31:04.582Z,101963.75
2023-03-16T02:33:07.497Z,101967.31
2023-03-16T02:35:10.780Z,101969.16
2023-03-16T02:37:12.398Z,101968.44
2023-03-16T02:39:14.022Z,101969.31
2023-03-16T02:41:20.110Z,101980.19
2023-03-16T02:43:27.180Z,101980.19
2023-03-16T02:45:33.221Z,101978.47
2023-03-16T02:47:41.654Z,101983.00
2023-03-16T02:49:45.443Z,101983.16
2023-03-16T02:51:49.984Z,101981.44
2023-03-16T02:53:54.001Z,101984.28
2023-03-16T02:55:56.108Z,101975.47
2023-03-16T02:57:58.317Z,101988.06
2023-03-16T03:00:00.596Z,101993.59
2023-03-16T03:02:02.542Z,101994.56
2023-03-16T03:04:06.532Z,101998.22
2023-03-16T03:06:08.798Z,101996.53
2023-03-16T03:08:12.419Z,101999.34
2023-03-16T03:10:14.012Z,102003.19
2023-03-16T03:12:15.869Z,102004.28
2023-03-16T03:14:17.540Z,102006.97
2023-03-16T03:16:19.462Z,102013.31
2023-03-16T03:18:21.407Z,102014.44
2023-03-16T03:20:24.624Z,102015.41
2023-03-16T03:22:30.243Z,102019.22
2023-03-16T03:24:34.426Z,102023.91
2023-03-16T03:26:36.656Z,102030.25
2023-03-16T03:28:39.584Z,102035.91
2023-03-16T03:30:41.174Z,102036.00
2023-03-16T03:32:43.002Z,102042.50
2023-03-16T03:34:46.825Z,102040.94
2023-03-16T03:36:49.923Z,102044.72
2023-03-16T03:38:51.777Z,102052.94
2023-03-16T03:40:54.394Z,102053.16
2023-03-16T03:42:56.095Z,102058.69
2023-03-16T03:44:57.909Z,102067.72
2023-03-16T03:46:59.719Z,102063.47
2023-03-16T03:49:01.485Z,102070.78
2023-03-16T03:51:03.349Z,102071.81
2023-03-16T03:53:10.225Z,102066.53
2023-03-16T03:55:12.150Z,102080.09
2023-03-16T03:57:13.927Z,102071.31
2023-03-16T03:59:15.572Z,102078.53
2023-03-16T04:01:17.365Z,102079.50
2023-03-16T04:03:19.102Z,102079.66
2023-03-16T04:05:22.496Z,102077.06
2023-03-16T04:07:24.236Z,102085.28
2023-03-16T04:09:27.256Z,102088.81
2023-03-16T04:11:28.836Z,102090.78
2023-03-16T04:13:30.510Z,102090.78
2023-03-16T04:15:32.143Z,102085.50
2023-03-16T04:17:34.500Z,102090.06
2023-03-16T04:19:37.655Z,102094.56
2023-03-16T04:21:39.771Z,102098.22
2023-03-16T04:23:49.117Z,102097.38
2023-03-16T04:25:52.288Z,102097.25
2023-03-16T04:27:54.209Z,102096.50
2023-03-16T04:29:55.764Z,102091.13
2023-03-16T04:31:57.561Z,102090.28
2023-03-16T04:33:59.604Z,102092.97
2023-03-16T04:36:01.658Z,102095.66
2023-03-16T04:38:03.904Z,102101.88
2023-03-16T04:40:06.604Z,102112.63
2023-03-16T04:42:09.715Z,102111.78
2023-03-16T04:44:11.440Z,102116.19
2023-03-16T04:46:13.334Z,102117.03
2023-03-16T04:48:14.963Z,102117.03
2023-03-16T04:50:16.614Z,102119.72
2023-03-16T04:52:18.454Z,102123.28
2023-03-16T04:54:20.074Z,102117.03
2023-03-16T04:56:21.931Z,102124.25
2023-03-16T04:58:25.267Z,102126.06
2023-03-16T05:00:27.263Z,102124.25
2023-03-16T05:02:28.982Z,102132.31
2023-03-16T05:04:30.516Z,102124.25
2023-03-16T05:06:32.320Z,102136.81
2023-03-16T05:08:33.884Z,102128.91
2023-03-16T05:10:35.776Z,102134.28
2023-03-16T05:12:37.335Z,102136.97
2023-03-16T05:14:40.425Z,102138.06
2023-03-16T05:16:42.079Z,102142.59
2023-03-16T05:18:43.617Z,102135.63
2023-03-16T05:20:45.666Z,102146.25
2023-03-16T05:22:47.353Z,102138.31
2023-03-16T05:24:48.971Z,102140.13
2023-03-16T05:26:51.035Z,102140.28
2023-03-16T05:28:52.707Z,102140.38
2023-03-16T05:30:55.849Z,102149.41
2023-03-16T05:32:57.404Z,102155.91
2023-03-16T05:34:59.294Z,102151.50
2023-03-16T05:37:01.038Z,102157.03
2023-03-16T05:39:02.914Z,102165.19
2023-03-16T05:41:05.997Z,102160.81
2023-03-16T05:43:08.283Z,102164.47
2023-03-16T05:45:12.671Z,102168.22
2023-03-16T05:47:15.741Z,102169.25
2023-03-16T05:49:17.867Z,102175.59
2023-03-16T05:51:19.454Z,102179.22
2023-03-16T05:53:21.252Z,102182.91
2023-03-16T05:55:22.896Z,102194.63
2023-03-16T05:57:24.814Z,102193.78
2023-03-16T05:59:27.000Z,102198.28
2023-03-16T06:01:29.141Z,102198.28
2023-03-16T06:03:32.247Z,102203.66
2023-03-16T06:05:34.040Z,102203.66
2023-03-16T06:07:37.679Z,102205.38
2023-03-16T06:09:39.493Z,102206.34
2023-03-16T06:11:41.449Z,102212.47
2023-03-16T06:13:43.513Z,102210.63
2023-03-16T06:15:45.125Z,102216.75
2023-03-16T06:17:46.716Z,102213.09
2023-03-16T06:19:49.793Z,102214.78
2023-03-16T06:21:52.079Z,102210.16
2023-03-16T06:23:53.757Z,102219.94
2023-03-16T06:25:56.145Z,102220.66
2023-03-16T06:27:59.055Z,102223.09
2023-03-16T06:30:00.692Z,102221.97
2023-03-16T06:32:02.868Z,102224.44
2023-03-16T06:34:04.795Z,102229.56
2023-03-16T06:36:08.757Z,102235.56
2023-03-16T06:38:10.353Z,102233.97
2023-03-16T06:40:12.648Z,102231.03
2023-03-16T06:42:14.461Z,102234.56
2023-03-16T06:44:16.082Z,102243.72
2023-03-16T06:46:17.797Z,102244.91
2023-03-16T06:48:19.437Z,102238.91
2023-03-16T06:50:21.227Z,102246.72
2023-03-16T06:52:24.147Z,102252.47
2023-03-16T06:54:26.140Z,102253.94
2023-03-16T06:56:27.692Z,102257.09
2023-03-16T06:58:29.204Z,102252.56
2023-03-16T07:00:32.113Z,102262.09
2023-03-16T07:02:33.847Z,102254.97
2023-03-16T07:04:35.546Z,102262.03
2023-03-16T07:06:37.072Z,102263.13
2023-03-16T07:08:39.989Z,102267.59
2023-03-16T07:10:41.520Z,102256.91
2023-03-16T07:12:43.419Z,102262.22
2023-03-16T07:14:46.285Z,102271.22
2023-03-16T07:16:49.999Z,102277.41
2023-03-16T07:18:51.888Z,102270.28
2023-03-16T07:20:53.838Z,102274.00
2023-03-16T07:22:55.621Z,102272.94
2023-03-16T07:24:58.653Z,102283.53
2023-03-16T07:27:00.301Z,102279.16
2023-03-16T07:29:02.317Z,102282.50
2023-03-16T07:31:04.611Z,102279.56
2023-03-16T07:33:06.451Z,102278.47
2023-03-16T07:35:09.365Z,102288.03
2023-03-16T07:37:11.336Z,102288.78
2023-03-16T07:39:12.874Z,102291.22
2023-03-16T07:41:15.855Z,102291.09
2023-03-16T07:43:17.401Z,102290.97
2023-03-16T07:45:19.331Z,102281.91
2023-03-16T07:47:21.760Z,102283.63
2023-03-16T07:49:24.298Z,102287.16
2023-03-16T07:51:26.110Z,102297.84
2023-03-16T07:53:27.613Z,102294.13
2023-03-16T07:55:29.176Z,102284.00
2023-03-16T07:57:32.156Z,102290.97
2023-03-16T07:59:34.449Z,102290.63
2023-03-16T08:01:36.312Z,102298.44
2023-03-16T08:03:38.857Z,102295.44
2023-03-16T08:05:42.081Z,102296.94
2023-03-16T08:07:43.899Z,102299.31
2023-03-16T08:09:45.450Z,102298.13
2023-03-16T08:11:47.069Z,102300.47
2023-03-16T08:13:50.102Z,102301.84
2023-03-16T08:15:53.009Z,102307.72
2023-03-16T08:17:54.611Z,102305.47
2023-03-16T08:19:56.416Z,102299.56
2023-03-16T08:22:01.708Z,102291.03
2023-03-16T08:24:04.250Z,102296.91
2023-03-16T08:26:06.584Z,102296.38
2023-03-16T08:28:08.591Z,102293.25
2023-03-16T08:30:15.680Z,102303.56
2023-03-16T08:32:17.580Z,102308.41
2023-03-16T08:34:19.441Z,102314.25
2023-03-16T08:36:21.176Z,102313.81
2023-03-16T08:38:23.011Z,102309.97
2023-03-16T08:40:26.462Z,102322.94
2023-03-16T08:42:28.389Z,102309.78
2023-03-16T08:44:30.142Z,102317.28
2023-03-16T08:46:33.956Z,102312.22
2023-03-16T08:48:36.165Z,102317.03
2023-03-16T08:50:37.906Z,102320.28
2023-03-16T08:52:39.882Z,102318.09
2023-03-16T08:54:47.226Z,102320.38
2023-03-16T08:56:55.038Z,102320.03
2023-03-16T08:58:57.205Z,102323.94
2023-03-16T09:00:59.068Z,102327.34
2023-03-16T09:03:02.380Z,102327.19
2023-03-16T09:05:04.337Z,102329.06
2023-03-16T09:07:09.417Z,102332.25
2023-03-16T09:09:11.499Z,102334.63
2023-03-16T09:11:15.212Z,102335.97
2023-03-16T09:13:17.007Z,102338.16
2023-03-16T09:15:20.459Z,102342.38
2023-03-16T09:17:22.469Z,102348.31
2023-03-16T09:19:30.630Z,102340.78
2023-03-16T09:21:36.914Z,102343.28
2023-03-16T09:23:38.691Z,102345.81
2023-03-16T09:25:43.256Z,102356.34
2023-03-16T09:27:44.896Z,102347.94
2023-03-16T09:29:46.758Z,102350.63
2023-03-16T09:31:49.767Z,102354.97
2023-03-16T09:33:51.342Z,102356.66
2023-03-16T09:35:54.753Z,102360.19
2023-03-16T09:38:05.527Z,102358.91
2023-03-16T09:40:14.973Z,102355.75
2023-03-16T09:42:25.527Z,102356.19
2023-03-16T09:44:39.108Z,102354.50
2023-03-16T09:46:44.196Z,102356.81
2023-03-16T09:48:48.294Z,102341.84
2023-03-16T09:50:51.520Z,102343.94
2023-03-16T09:53:03.795Z,102343.16
2023-03-16T09:55:12.678Z,102344.00
2023-03-16T09:57:24.670Z,102355.97
2023-03-16T09:59:26.564Z,102350.66
2023-03-16T10:01:55.348Z,102356.13
2023-03-16T10:04:11.825Z,102349.41
2023-03-16T10:06:14.702Z,102353.13
2023-03-16T10:08:23.182Z,102350.91
2023-03-16T10:10:49.852Z,102355.50
2023-03-16T10:12:53.268Z,102354.81
2023-03-16T10:14:59.882Z,102350.06
2023-03-16T10:17:06.517Z,102357.75
2023-03-16T10:19:13.636Z,102355.34
2023-03-16T10:21:18.134Z,102351.41
2023-03-16T10:23:23.295Z,102354.41
2023-03-16T10:25:32.816Z,102351.69
2023-03-16T10:27:37.035Z,102357.03
2023-03-16T10:29:39.968Z,102349.72
2023-03-16T10:31:42.589Z,102351.25
2023-03-16T10:33:44.256Z,102347.75
2023-03-16T10:35:47.981Z,102349.06
2023-03-16T10:37:49.692Z,102344.94
2023-03-16T10:39:53.335Z,102339.28
2023-03-16T10:41:57.647Z,102348.38
2023-03-16T10:44:02.168Z,102347.78
2023-03-16T10:46:03.998Z,102348.88
2023-03-16T10:48:07.492Z,102345.13
2023-03-16T10:50:15.222Z,102348.31
2023-03-16T10:52:32.083Z,102345.16
2023-03-16T10:54:35.923Z,102339.91
2023-03-16T10:56:40.419Z,102341.22
2023-03-16T10:58:43.531Z,102350.97
2023-03-16T11:00:46.339Z,102345.91
2023-03-16T11:02:49.541Z,102345.72
2023-03-16T11:04:51.358Z,102346.81
2023-03-16T11:06:56.079Z,102337.28
2023-03-16T11:09:04.175Z,102334.31
2023-03-16T11:11:10.231Z,102335.81
2023-03-16T11:13:15.298Z,102337.47
2023-03-16T11:15:25.767Z,102333.03
2023-03-16T11:17:35.854Z,102320.97
2023-03-16T11:19:44.948Z,102330.28
2023-03-16T11:21:51.403Z,102324.16
2023-03-16T11:23:55.731Z,102325.44
2023-03-16T11:26:01.283Z,102318.44
2023-03-16T11:28:13.517Z,102322.66
2023-03-16T11:30:24.488Z,102319.25
2023-03-16T11:32:31.033Z,102318.59
2023-03-16T11:34:34.713Z,102316.00
2023-03-16T11:36:45.934Z,102315.38
2023-03-16T11:38:55.786Z,102316.59
2023-03-16T11:41:01.213Z,102311.50
2023-03-16T11:43:19.154Z,102321.38
2023-03-16T11:45:34.273Z,102321.75
2023-03-16T11:47:58.613Z,102313.22
2023-03-16T11:50:05.838Z,102323.59
2023-03-16T11:52:17.007Z,102315.72
2023-03-16T11:54:39.691Z,102315.69
2023-03-16T11:56:46.969Z,102308.94
2023-03-16T11:59:23.544Z,102305.72
2023-03-16T12:01:36.797Z,102300.00
2023-03-16T12:03:52.415Z,102299.31
2023-03-16T12:06:02.041Z,102298.91
2023-03-16T12:08:20.163Z,102301.19
2023-03-16T12:10:25.758Z,102294.00
2023-03-16T12:12:40.093Z,102292.28
2023-03-16T12:14:46.724Z,102296.97
2023-03-16T12:16:56.261Z,102287.63
2023-03-16T12:19:03.396Z,102282.97
2023-03-16T12:21:11.616Z,102271.09
2023-03-16T12:23:18.100Z,102282.38
2023-03-16T12:25:22.266Z,102271.56
2023-03-16T12:27:29.832Z,102274.13
2023-03-16T12:29:36.620Z,102270.34
2023-03-16T12:31:47.127Z,102279.28
2023-03-16T12:34:02.363Z,102272.06
2023-03-16T12:36:35.681Z,102278.84
2023-03-16T12:38:46.344Z,102266.97
2023-03-16T12:40:55.512Z,102263.38
2023-03-16T12:43:09.137Z,102265.03
2023-03-16T12:45:15.621Z,102269.25
2023-03-16T12:47:28.359Z,102254.16
2023-03-16T12:49:35.410Z,102258.22
2023-03-16T12:51:39.374Z,102255.06
2023-03-16T12:53:44.232Z,102257.38
2023-03-16T12:55:45.857Z,102254.16
2023-03-16T12:57:50.653Z,102251.81
2023-03-16T12:59:56.030Z,102249.22
2023-03-16T13:01:59.652Z,102249.00
2023-03-16T13:04:06.767Z,102242.41
2023-03-16T13:06:17.776Z,102245.56
2023-03-16T13:08:21.771Z,102244.72
2023-03-16T13:10:23.575Z,102246.41
2023-03-16T13:12:28.316Z,102241.75
2023-03-16T13:14:39.921Z,102240.44
2023-03-16T13:16:41.768Z,102236.03
2023-03-16T13:18:43.432Z,102241.56
2023-03-16T13:20:53.190Z,102236.31
2023-03-16T13:23:20.339Z,102229.09
2023-03-16T13:25:34.792Z,102232.50
2023-03-16T13:27:39.143Z,102231.91
2023-03-16T13:29:40.961Z,102227.66
2023-03-16T13:31:42.633Z,102231.72
2023-03-16T13:33:46.450Z,102232.56
2023-03-16T13:35:49.761Z,102232.78
2023-03-16T13:37:51.814Z,102230.66
2023-03-16T13:39:56.242Z,102235.13
2023-03-16T13:41:59.816Z,102233.19
2023-03-16T13:44:01.464Z,102240.00
2023-03-16T13:46:14.401Z,102245.75
2023-03-16T13:48:17.773Z,102235.66
2023-03-16T13:50:20.456Z,102233.41
2023-03-16T13:52:27.093Z,102231.31
2023-03-16T13:54:31.042Z,102227.31
2023-03-16T13:56:34.221Z,102227.53
2023-03-16T13:58:38.324Z,102232.19
2023-03-16T14:00:44.579Z,102230.66
2023-03-16T14:02:47.875Z,102235.13
2023-03-16T14:04:49.465Z,102224.75
2023-03-16T14:06:56.126Z,102221.53
2023-03-16T14:09:02.893Z,102221.28
2023-03-16T14:11:05.242Z,102221.28
2023-03-16T14:13:12.489Z,102211.13
2023-03-16T14:15:14.692Z,102211.59
2023-03-16T14:17:19.033Z,102203.78
2023-03-16T14:19:24.020Z,102206.13
2023-03-16T14:21:28.534Z,102204.25
2023-03-16T14:23:35.871Z,102200.88
2023-03-16T14:25:37.830Z,102203.00
2023-03-16T14:27:44.291Z,102202.19
2023-03-16T14:29:54.283Z,102196.28
2023-03-16T14:31:57.163Z,102189.72
2023-03-16T14:34:02.116Z,102197.59
2023-03-16T14:36:17.092Z,102189.13
2023-03-16T14:38:21.430Z,102195.97
2023-03-16T14:40:29.578Z,102188.59
2023-03-16T14:42:32.557Z,102186.94
2023-03-16T14:44:36.155Z,102184.66
2023-03-16T14:46:40.778Z,102173.03
2023-03-16T14:48:43.134Z,102176.03
2023-03-16T14:50:53.878Z,102167.63
2023-03-16T14:52:56.800Z,102157.69
2023-03-16T14:54:59.678Z,102150.94
2023-03-16T14:57:04.928Z,102154.56
2023-03-16T14:59:06.713Z,102152.91
2023-03-16T15:01:16.332Z,102149.53
2023-03-16T15:03:22.416Z,102159.47
2023-03-16T15:05:31.854Z,102159.28
2023-03-16T15:07:39.891Z,102153.13
2023-03-16T15:09:42.555Z,102159.69
2023-03-16T15:11:44.119Z,102159.91
2023-03-16T15:13:47.025Z,102156.75
2023-03-16T15:15:48.959Z,102156.34
2023-03-16T15:17:52.369Z,102146.22
2023-03-16T15:19:55.833Z,102153.38
2023-03-16T15:22:00.214Z,102149.59
2023-03-16T15:24:02.463Z,102147.47
2023-03-16T15:26:04.878Z,102145.34
2023-03-16T15:28:12.753Z,102138.41
2023-03-16T15:30:17.907Z,102150.22
2023-03-16T15:32:19.821Z,102152.75
2023-03-16T15:34:21.621Z,102149.16
2023-03-16T15:36:26.735Z,102150.81
2023-03-16T15:38:31.589Z,102152.09
2023-03-16T15:40:35.202Z,102142.16
2023-03-16T15:42:38.930Z,102152.22
2023-03-16T15:44:41.302Z,102138.91
2023-03-16T15:46:43.190Z,102151.72
2023-03-16T15:48:45.079Z,102144.94
2023-03-16T15:50:52.028Z,102146.81
2023-03-16T15:53:00.527Z,102144.69
2023-03-16T15:55:02.556Z,102151.00
2023-03-16T15:57:04.416Z,102143.78
2023-03-16T15:59:06.693Z,102136.56
2023-03-16T16:01:16.886Z,102136.72
2023-03-16T16:03:21.967Z,102136.84
2023-03-16T16:05:25.307Z,102131.66
2023-03-16T16:07:26.957Z,102132.19
2023-03-16T16:09:30.129Z,102136.50
2023-03-16T16:11:31.915Z,102133.47
2023-03-16T16:13:44.108Z,102125.31
2023-03-16T16:15:46.970Z,102126.06
2023-03-16T16:18:08.567Z,102131.41
2023-03-16T16:20:19.563Z,102123.06
2023-03-16T16:22:21.212Z,102134.53
2023-03-16T16:24:23.015Z,102128.06
2023-03-16T16:26:46.956Z,102132.34
2023-03-16T16:28:49.814Z,102125.00
2023-03-16T16:30:51.441Z,102130.09
2023-03-16T16:32:55.411Z,102133.13
2023-03-16T16:35:04.452Z,102127.94
2023-03-16T16:37:06.504Z,102131.81
2023-03-16T16:39:10.052Z,102128.50
2023-03-16T16:41:25.728Z,102135.25
2023-03-16T16:43:34.452Z,102133.84
2023-03-16T16:45:36.109Z,102128.84
2023-03-16T16:47:37.694Z,102142.94
2023-03-16T16:49:39.214Z,102138.59
2023-03-16T16:51:41.355Z,102128.47
2023-03-16T16:53:43.547Z,102135.38
2023-03-16T16:55:45.369Z,102133.94
2023-03-16T16:57:49.439Z,102138.09
2023-03-16T16:59:52.695Z,102146.00
2023-03-16T17:01:54.483Z,102146.41
2023-03-16T17:03:56.230Z,102136.13
2023-03-16T17:05:58.923Z,102138.22
2023-03-16T17:08:00.764Z,102138.25
2023-03-16T17:10:02.623Z,102155.28
2023-03-16T17:12:16.813Z,102152.59
2023-03-16T17:14:20.834Z,102150.75
2023-03-16T17:16:37.860Z,102154.34
2023-03-16T17:18:39.609Z,102163.56
2023-03-16T17:20:41.369Z,102167.34
2023-03-16T17:22:47.002Z,102171.78
2023-03-16T17:24:49.257Z,102170.22
2023-03-16T17:26:53.155Z,102170.44
2023-03-16T17:28:59.577Z,102168.69
2023-03-16T17:31:01.454Z,102166.00
2023-03-16T17:33:12.463Z,102151.53
2023-03-16T17:35:15.091Z,102156.31
2023-03-16T17:37:18.728Z,102156.31
2023-03-16T17:39:22.290Z,102146.28
2023-03-16T17:41:27.046Z,102139.81
2023-03-16T17:43:29.419Z,102142.38
2023-03-16T17:45:31.212Z,102142.16
2023-03-16T17:47:33.224Z,102140.97
2023-03-16T17:49:36.204Z,102137.75
2023-03-16T17:51:40.364Z,102129.44
2023-03-16T17:53:42.632Z,102134.66
2023-03-16T17:55:45.877Z,102124.63
2023-03-16T17:57:49.614Z,102121.72
2023-03-16T17:59:51.330Z,102123.59
2023-03-16T18:01:52.946Z,102134.41
2023-03-16T18:03:56.863Z,102129.81
2023-03-16T18:05:59.861Z,102120.78
2023-03-16T18:08:13.082Z,102120.72
2023-03-16T18:10:18.227Z,102114.44
2023-03-16T18:12:20.007Z,102118.13
2023-03-16T18:14:34.062Z,102106.38
2023-03-16T18:16:36.574Z,102105.50
2023-03-16T18:18:41.666Z,102112.53
2023-03-16T18:20:43.574Z,102111.50
2023-03-16T18:22:46.773Z,102112.09
2023-03-16T18:24:49.661Z,102105.81
2023-03-16T18:26:51.743Z,102108.13
2023-03-16T18:28:53.765Z,102104.19
2023-03-16T18:30:57.149Z,102103.28
2023-03-16T18:33:00.211Z,102100.38
2023-03-16T18:35:03.974Z,102106.41
2023-03-16T18:37:13.286Z,102101.63
2023-03-16T18:39:20.801Z,102114.78
2023-03-16T18:41:25.577Z,102112.53
2023-03-16T18:43:27.590Z,102106.75
2023-03-16T18:45:30.295Z,102107.19
2023-03-16T18:47:32.536Z,102091.28
2023-03-16T18:49:35.917Z,102078.19
2023-03-16T18:51:39.120Z,102091.06
2023-03-16T18:53:40.939Z,102090.50
2023-03-16T18:55:46.158Z,102089.78
2023-03-16T18:57:49.067Z,102079.97
2023-03-16T18:59:51.561Z,102085.38
2023-03-16T19:01:53.811Z,102087.22
2023-03-16T19:03:57.580Z,102082.69
2023-03-16T19:06:02.056Z,102085.38
2023-03-16T19:08:05.421Z,102077.13
2023-03-16T19:10:23.702Z,102080.50
2023-03-16T19:12:29.289Z,102080.69
2023-03-16T19:14:32.440Z,102082.38
2023-03-16T19:16:34.127Z,102083.53
2023-03-16T19:18:35.738Z,102087.22
2023-03-16T19:20:38.000Z,102086.41
2023-03-16T19:22:39.857Z,102098.91
2023-03-16T19:24:46.239Z,102106.19
2023-03-16T19:26:47.816Z,102095.34
2023-03-16T19:28:51.265Z,102100.78
2023-03-16T19:30:53.371Z,102099.78
2023-03-16T19:32:56.139Z,102090.78
2023-03-16T19:34:57.882Z,102087.09
2023-03-16T19:36:59.915Z,102091.66
2023-03-16T19:39:03.511Z,102085.38
2023-03-16T19:41:07.264Z,102085.56
2023-03-16T19:43:16.237Z,102084.69
2023-03-16T19:45:23.557Z,102085.69
2023-03-16T19:47:28.885Z,102093.81
2023-03-16T19:49:31.247Z,102090.25
2023-03-16T19:51:33.088Z,102092.09
2023-03-16T19:53:34.887Z,102088.41
2023-03-16T19:55:36.725Z,102077.88
2023-03-16T19:57:38.325Z,102071.63
2023-03-16T19:59:42.509Z,102070.75
2023-03-16T20:01:47.700Z,102071.94
2023-03-16T20:03:51.644Z,102065.53
2023-03-16T20:05:55.036Z,102067.38
2023-03-16T20:07:59.820Z,102065.53
2023-03-16T20:10:01.778Z,102070.94
2023-03-16T20:12:04.036Z,102074.50
2023-03-16T20:14:05.988Z,102075.50
2023-03-16T20:16:11.446Z,102072.78
2023-03-16T20:18:16.767Z,102072.78
2023-03-16T20:20:21.981Z,102079.34
2023-03-16T20:22:25.583Z,102083.94
2023-03-16T20:24:27.467Z,102079.34
2023-03-16T20:26:31.358Z,102066.66
2023-03-16T20:28:36.595Z,102071.94
2023-03-16T20:30:39.402Z,102077.66
2023-03-16T20:32:41.553Z,102080.19
2023-03-16T20:34:45.266Z,102082.75
2023-03-16T20:36:47.170Z,102082.91
2023-03-16T20:38:49.375Z,102074.09
2023-03-16T20:40:52.910Z,102077.66
2023-03-16T20:42:54.805Z,102077.66
2023-03-16T20:44:56.971Z,102071.22
2023-03-16T20:46:59.046Z,102069.53
2023-03-16T20:49:01.808Z,102065.13
2023-03-16T20:51:06.082Z,102065.13
2023-03-16T20:53:08.078Z,102068.69
2023-03-16T20:55:14.647Z,102063.41
2023-03-16T20:57:20.541Z,102063.28
2023-03-16T20:59:24.872Z,102064.28
2023-03-16T21:01:26.911Z,102056.16
2023-03-16T21:03:30.570Z,102051.59
2023-03-16T21:05:32.421Z,102058.84
2023-03-16T21:07:35.527Z,102050.19
2023-03-16T21:09:37.071Z,102042.94
2023-03-16T21:11:39.307Z,102048.34
2023-03-16T21:13:43.331Z,102057.47
2023-03-16T21:15:45.968Z,102048.50
2023-03-16T21:17:56.143Z,102034.13
2023-03-16T21:19:58.805Z,102030.56
2023-03-16T21:22:01.412Z,102032.56
2023-03-16T21:24:04.800Z,102030.91
2023-03-16T21:26:07.140Z,102025.63
2023-03-16T21:28:12.570Z,102025.63
2023-03-16T21:30:23.241Z,102030.31
2023-03-16T21:32:27.646Z,102018.50
2023-03-16T21:34:35.946Z,102015.25
2023-03-16T21:36:37.758Z,102018.97
2023-03-16T21:38:39.393Z,102011.00
2023-03-16T21:40:42.746Z,102005.59
2023-03-16T21:42:45.368Z,102006.78
2023-03-16T21:44:48.524Z,102009.47
2023-03-16T21:46:50.333Z,102016.03
2023-03-16T21:48:55.435Z,102019.59
2023-03-16T21:50:58.958Z,102009.75
2023-03-16T21:53:01.099Z,101999.78
2023-03-16T21:55:03.044Z,101991.69
2023-03-16T21:57:13.934Z,101986.44
2023-03-16T21:59:16.005Z,101979.47
2023-03-16T22:01:22.203Z,101984.88
2023-03-16T22:03:29.605Z,101984.88
2023-03-16T22:05:37.232Z,101981.50
2023-03-16T22:07:39.637Z,101981.63
2023-03-16T22:09:41.720Z,101968.94
2023-03-16T22:11:43.310Z,101967.56
2023-03-16T22:13:47.161Z,101962.31
2023-03-16T22:15:50.809Z,101960.44
2023-03-16T22:17:53.875Z,101950.47
2023-03-16T22:19:55.623Z,101946.91
2023-03-16T22:21:57.286Z,101942.38
2023-03-16T22:24:00.692Z,101947.09
2023-03-16T22:26:04.473Z,101944.53
2023-03-16T22:28:11.857Z,101937.44
2023-03-16T22:30:20.632Z,101943.13
2023-03-16T22:32:22.743Z,101935.88
2023-03-16T22:34:31.404Z,101935.88
2023-03-16T22:36:34.374Z,101939.44
2023-03-16T22:38:36.811Z,101943.13
2023-03-16T22:40:39.027Z,101938.59
2023-03-16T22:42:40.903Z,101927.09
2023-03-16T22:44:42.684Z,101925.91
2023-03-16T22:46:46.570Z,101934.19
2023-03-16T22:48:49.434Z,101928.78
2023-03-16T22:50:52.390Z,101931.50
2023-03-16T22:52:57.256Z,101928.94
2023-03-16T22:55:01.310Z,101922.66
2023-03-16T22:57:03.337Z,101922.53
2023-03-16T22:59:08.585Z,101919.13
2023-03-16T23:01:16.345Z,101912.56
2023-03-16T23:03:21.551Z,101923.38
2023-03-16T23:05:26.278Z,101912.72
2023-03-16T23:07:27.884Z,101911.84
2023-03-16T23:09:29.682Z,101917.25
2023-03-16T23:11:33.867Z,101915.41
2023-03-16T23:13:36.224Z,101907.44
2023-03-16T23:15:38.277Z,101894.94
2023-03-16T23:17:40.159Z,101892.25
2023-03-16T23:19:43.679Z,101895.75
2023-03-16T23:21:45.293Z,101899.50
2023-03-16T23:23:57.094Z,101896.78
2023-03-16T23:26:02.547Z,101906.91
2023-03-16T23:28:05.078Z,101899.81
2023-03-16T23:30:16.188Z,101904.19
2023-03-16T23:32:17.958Z,101907.06
2023-03-16T23:34:22.131Z,101905.38
2023-03-16T23:36:25.776Z,101898.97
2023-03-16T23:38:27.878Z,101900.63